Skip Navigation Links
NOAA logo - Click to go to the NOAA homepage
NOAA's National Weather Service
Alaska Aviation Weather Unit
  NWS logo - Click to go to the NWS homepage
Left Navbar Graphic     22 AKDT = 06 GMT

   
NOAA is celebrating 200 years of science, service, and stewardship. Visit the NOAA 200th celebration Web site to learn more.
USA.gov is the U.S. Government's official Web portal to all Federal, state and local government Web resources and services.
Facebook
NWS on Facebook

Important Change Regarding the AAWU Web Presence

 

Over the last several months, the AAWU has been working to navigate its webpages to a nationally supported server. Security, as well as other needs, have necessitated the change.  We have been given an extension for the site changeover while we diligently work at addressing feedback received. As of July 14, 2017, aawu.arh.noaa.gov will be discontinued. The new AAWU web address is weather.gov/aawu. It is now live and will run in-parallel with the old site until it is discontinued on July 14, 2017. Please continue to send any feedback or questions regarding the new webpages to nws.ar.aawu.webauthors@noaa.gov.  Thank you for your patience during this time of transition.
AAWU Home :: Display TAF Add Bookmark
TAF PAKW 260545Z 2606/2706 05004KT P6SM -RA BKN015 OVC025
     FM260900 VRB02KT 4SM -RA BR BKN007 OVC015
     FM261900 15005KT P6SM -RA SCT007 OVC015
     FM270300 VRB03KT P6SM -RA OVC007
      AMD LTD TO CLD VIS AND WIND=

SPECI PAKW 260000Z AUTO 21003KT 6SM -RA BR SCT027 BKN035 OVC043 16/13 A2999 RMK AO2 RAB2355 P0000 T01560133 TSNO= METAR PAKW 260053Z AUTO 00000KT 10SM FEW018 SCT027 OVC043 15/13 A2997 RMK AO2 RAB2355E15 SLP149 P0000 T01500128 TSNO= METAR PAKW 260153Z AUTO 00000KT 10SM SCT020 BKN027 OVC034 15/12 A2995 RMK AO2 SLP143 T01500122 TSNO= SPECI PAKW 260206Z AUTO 00000KT 2 1/2SM RA BR FEW019 BKN032 OVC042 15/13 A2995 RMK AO2 RAB0157 P0003 T01500128 TSNO= SPECI PAKW 260216Z AUTO 00000KT 1 1/2SM +RA BR SCT026 SCT032 OVC039 14/13 A2995 RMK AO2 RAB0157 P0008 T01440128 TSNO= SPECI PAKW 260224Z AUTO 00000KT 3SM -RA BR FEW022 OVC037 14/13 A2995 RMK AO2 RAB0157 P0009 T01440133 TSNO= SPECI PAKW 260241Z AUTO 00000KT 2SM -RA BR SCT012 BKN023 OVC036 14/13 A2994 RMK AO2 RAB0157 P0012 T01440133 TSNO= SPECI PAKW 260250Z AUTO 03003KT 2SM -RA BR BKN010 BKN023 OVC034 14/12 A2994 RMK RAB0157 P0013 TSNO VIA AUTODIAL= METAR PAKW 260253Z AUTO 05004KT 3SM -RA BR BKN010 BKN023 OVC034 14/12 A2994 RMK RAB0157 SLP138 P0013 60013 T01390122 56011 TSNO VIA AUTODIAL= SPECI PAKW 260315Z AUTO 05004KT 4SM -RA BR SCT010 OVC016 14/12 A2994 RMK AO2 P0001 T01390122 TSNO= SPECI PAKW 260322Z AUTO 00000KT 6SM BR BKN014 OVC018 14/12 A2994 RMK AO2 RAE22 P0001 T01390122 TSNO= SPECI PAKW 260331Z AUTO 00000KT 6SM -RA BR FEW011 BKN018 OVC025 14/12 A2994 RMK AO2 RAE22B31 P0001 T01390122 TSNO= SPECI PAKW 260413Z AUTO 04004KT 10SM BKN011 OVC028 14/12 A2993 RMK AO2 T01390122 TSNO= METAR PAKW 260453Z AUTO 04006KT 10SM -RA BKN025 OVC033 13/12 A2991 RMK AO2 RAB48 SLP129 P0000 T01330117 TSNO= METAR PAKW 260553Z AUTO 04005KT 9SM -RA FEW014 SCT027 OVC037 13/12 A2992 RMK AO2 RAE0459B29 SLP130 P0001 60015 T01330117 10156 20133 55007 TSNO= SPECI PAKW 260606Z AUTO 04006KT 8SM -RA BKN025 OVC035 13/12 A2992 RMK AO2 P0001 T01330117 TSNO=
 Alaska TAF Map

NOAA's National Weather Service
Alaska Aviation Weather Unit
6930 Sand Lake Road
Anchorage, AK 99502-1845
Disclaimer
Credits
Glossary
Privacy Policy
About Us
Career Opportunities
Contact AAWU Internet Services Site last modified: April, 17th 2012